Time;durP1;ratioP1;P1;durP2;ratioP2;P2;SDS_P1;SDS_P2;PMS_P1;PMS_P2;Temp;Humidity;BMP_temperature;BMP_pressure;BME280_temperature;BME280_humidity;BME280_pressure;Samples;Min_cycle;Max_cycle;Signal;HPM_P1;HPM_P2
2021/01/06 00:00:47;;;;;;;;;;;21.80;36.60;;;;;;1506147;77;714;-55
2021/01/06 00:02:49;;;;;;;;;;;21.90;36.60;;;;;;1508162;77;794;-55
2021/01/06 00:04:51;;;;;;;;;;;21.90;36.50;;;;;;1502443;77;818;-57
2021/01/06 00:06:52;;;;;;;;;;;22.00;36.40;;;;;;1509026;77;1168;-55
2021/01/06 00:08:54;;;;;;;;;;;22.00;36.40;;;;;;1511058;77;1955;-57
2021/01/06 00:10:56;;;;;;;;;;;22.00;36.50;;;;;;1507331;77;771;-55
2021/01/06 00:12:58;;;;;;;;;;;22.00;36.50;;;;;;1513047;77;909;-58
2021/01/06 00:15:00;;;;;;;;;;;22.00;36.40;;;;;;1514588;77;730;-55
2021/01/06 00:17:02;;;;;;;;;;;22.00;36.40;;;;;;1514054;77;1135;-55
2021/01/06 00:19:04;;;;;;;;;;;22.00;36.60;;;;;;1517532;77;753;-55
2021/01/06 00:21:06;;;;;;;;;;;22.10;36.80;;;;;;1527764;77;723;-56
2021/01/06 00:23:08;;;;;;;;;;;22.00;36.80;;;;;;1519016;77;735;-57
2021/01/06 00:25:11;;;;;;;;;;;22.00;36.80;;;;;;1521678;77;728;-58
2021/01/06 00:27:13;;;;;;;;;;;22.10;37.00;;;;;;1513935;77;1751;-57
2021/01/06 00:29:15;;;;;;;;;;;22.00;37.10;;;;;;1515392;77;1927;-57
2021/01/06 00:31:17;;;;;;;;;;;22.00;37.10;;;;;;1519912;77;655;-57
2021/01/06 00:33:23;;;;;;;;;;;22.10;37.10;;;;;;1513873;77;750;-55
2021/01/06 00:35:25;;;;;;;;;;;22.00;36.90;;;;;;1512920;77;742;-56
2021/01/06 00:37:26;;;;;;;;;;;22.00;36.90;;;;;;1508850;77;1077;-55
2021/01/06 00:39:28;;;;;;;;;;;22.10;36.90;;;;;;1519703;77;666;-55
2021/01/06 00:41:31;;;;;;;;;;;22.00;36.80;;;;;;1519703;77;698;-58
2021/01/06 00:43:32;;;;;;;;;;;22.20;36.80;;;;;;1519559;77;784;-56
2021/01/06 00:45:34;;;;;;;;;;;22.20;36.70;;;;;;1512952;77;1163;-57
2021/01/06 00:47:36;;;;;;;;;;;22.10;36.80;;;;;;1518973;77;747;-58
2021/01/06 00:49:38;;;;;;;;;;;22.20;36.70;;;;;;1527102;77;1937;-57
2021/01/06 00:51:40;;;;;;;;;;;22.20;36.70;;;;;;1518574;77;709;-58
2021/01/06 00:53:42;;;;;;;;;;;22.10;36.70;;;;;;1516449;76;794;-59
2021/01/06 00:55:44;;;;;;;;;;;22.20;36.70;;;;;;1519532;77;1127;-58
2021/01/06 00:57:46;;;;;;;;;;;22.20;36.80;;;;;;1524433;77;779;-57
2021/01/06 00:59:48;;;;;;;;;;;22.20;36.70;;;;;;1519470;77;787;-58
2021/01/06 01:01:50;;;;;;;;;;;22.20;36.80;;;;;;1519423;77;737;-57
2021/01/06 01:03:52;;;;;;;;;;;22.20;36.80;;;;;;1519132;77;808;-57
2021/01/06 01:05:54;;;;;;;;;;;22.10;36.90;;;;;;1519829;77;1160;-57
2021/01/06 01:07:56;;;;;;;;;;;22.20;36.90;;;;;;1522953;77;871;-58
2021/01/06 01:09:58;;;;;;;;;;;22.20;37.00;;;;;;1517306;77;1930;-58
2021/01/06 01:11:59;;;;;;;;;;;22.20;37.00;;;;;;1514180;77;730;-57
2021/01/06 01:14:01;;;;;;;;;;;22.20;37.00;;;;;;1514894;77;728;-56
2021/01/06 01:16:03;;;;;;;;;;;22.20;37.00;;;;;;1514616;77;1171;-56
2021/01/06 01:18:05;;;;;;;;;;;22.20;37.00;;;;;;1523637;77;742;-58
2021/01/06 01:20:08;;;;;;;;;;;22.20;37.00;;;;;;1518172;77;686;-55
2021/01/06 01:22:10;;;;;;;;;;;22.10;37.00;;;;;;1516330;77;720;-57
2021/01/06 01:24:12;;;;;;;;;;;22.20;37.00;;;;;;1524243;77;694;-57
2021/01/06 01:26:13;;;;;;;;;;;22.20;37.00;;;;;;1514684;77;1159;-56
2021/01/06 01:28:16;;;;;;;;;;;22.30;37.10;;;;;;1518565;77;729;-57
2021/01/06 01:30:22;;;;;;;;;;;22.20;37.10;;;;;;1517271;77;1921;-56
2021/01/06 01:32:24;;;;;;;;;;;22.20;37.10;;;;;;1518056;76;810;-57
2021/01/06 01:34:45;;;;;;;;;;;22.30;37.30;;;;;;1532969;77;717;-58
2021/01/06 01:36:48;;;;;;;;;;;22.20;37.40;;;;;;1573250;74;1527;-58
2021/01/06 01:38:50;;;;;;;;;;;22.10;37.40;;;;;;1571770;74;733;-56
2021/01/06 01:40:53;;;;;;;;;;;22.20;37.50;;;;;;1575647;74;695;-58
2021/01/06 01:42:58;;;;;;;;;;;22.20;37.60;;;;;;1572355;74;1050;-57
2021/01/06 01:45:01;;;;;;;;;;;22.20;37.60;;;;;;1542440;76;765;-57
2021/01/06 01:47:08;;;;;;;;;;;22.20;37.60;;;;;;1541300;76;1132;-57
2021/01/06 01:49:11;;;;;;;;;;;22.30;37.70;;;;;;1513439;78;1655;-57
2021/01/06 01:51:33;;;;;;;;;;;22.20;37.50;;;;;;1510392;77;1958;-58
2021/01/06 01:53:36;;;;;;;;;;;22.30;37.60;;;;;;1519621;77;758;-57
2021/01/06 01:55:38;;;;;;;;;;;22.20;37.50;;;;;;1519280;77;1100;-58
2021/01/06 01:57:41;;;;;;;;;;;22.30;37.70;;;;;;1518300;77;787;-59
2021/01/06 01:59:46;;;;;;;;;;;22.20;37.70;;;;;;1582116;74;3032;-59
2021/01/06 02:01:48;;;;;;;;;;;22.20;37.60;;;;;;1596186;74;2007;-58
2021/01/06 02:03:55;;;;;;;;;;;22.30;37.70;;;;;;1598942;74;758;-59
2021/01/06 02:05:58;;;;;;;;;;;22.30;37.80;;;;;;1597916;73;1804;-58
2021/01/06 02:08:02;;;;;;;;;;;22.30;37.90;;;;;;1582039;73;851;-59
2021/01/06 02:10:05;;;;;;;;;;;22.30;38.10;;;;;;1587407;73;2151;-60
2021/01/06 02:12:09;;;;;;;;;;;22.30;38.00;;;;;;1594176;73;929;-58
2021/01/06 02:14:11;;;;;;;;;;;22.30;38.00;;;;;;1591576;73;748;-59
2021/01/06 02:16:18;;;;;;;;;;;22.30;37.80;;;;;;1596393;73;1245;-58
2021/01/06 02:18:20;;;;;;;;;;;22.30;37.80;;;;;;1592716;73;868;-58
2021/01/06 02:20:23;;;;;;;;;;;22.30;37.80;;;;;;1585664;73;787;-58
2021/01/06 02:22:24;;;;;;;;;;;22.30;37.80;;;;;;1580521;73;748;-59
2021/01/06 02:24:26;;;;;;;;;;;22.30;37.70;;;;;;1591975;73;785;-59
2021/01/06 02:26:28;;;;;;;;;;;22.30;37.70;;;;;;1589289;73;1117;-60
2021/01/06 02:28:30;;;;;;;;;;;22.30;37.80;;;;;;1593009;73;720;-59
2021/01/06 02:30:32;;;;;;;;;;;22.30;37.80;;;;;;1593810;73;1923;-60
2021/01/06 02:32:34;;;;;;;;;;;22.30;37.90;;;;;;1562160;74;777;-60
2021/01/06 02:34:37;;;;;;;;;;;22.40;37.80;;;;;;1559746;74;755;-59
2021/01/06 02:36:38;;;;;;;;;;;22.30;37.80;;;;;;1557070;74;1191;-59
2021/01/06 02:38:41;;;;;;;;;;;22.30;37.80;;;;;;1563728;74;719;-59
2021/01/06 02:40:43;;;;;;;;;;;22.40;37.90;;;;;;1566949;74;803;-58
2021/01/06 02:42:45;;;;;;;;;;;22.40;37.90;;;;;;1534368;76;687;-60
2021/01/06 02:44:47;;;;;;;;;;;22.40;37.90;;;;;;1569844;74;883;-60
2021/01/06 02:46:49;;;;;;;;;;;22.40;38.00;;;;;;1595530;73;1144;-59
2021/01/06 02:48:51;;;;;;;;;;;22.40;38.20;;;;;;1602981;73;729;-61
2021/01/06 02:50:57;;;;;;;;;;;22.30;38.20;;;;;;1607404;73;1938;-59
2021/01/06 02:53:00;;;;;;;;;;;22.40;38.20;;;;;;1608084;73;773;-58
2021/01/06 02:55:02;;;;;;;;;;;22.40;38.20;;;;;;1599942;73;762;-58
2021/01/06 02:57:04;;;;;;;;;;;22.40;38.40;;;;;;1603554;73;1068;-58
2021/01/06 02:59:06;;;;;;;;;;;22.40;38.60;;;;;;1609177;73;780;-59
2021/01/06 03:01:10;;;;;;;;;;;22.40;38.60;;;;;;1605314;73;873;-57
2021/01/06 03:03:12;;;;;;;;;;;22.40;38.80;;;;;;1595680;73;1615;-59
2021/01/06 03:05:32;;;;;;;;;;;22.50;38.80;;;;;;1607007;73;679;-60
2021/01/06 03:07:34;;;;;;;;;;;22.40;38.80;;;;;;1590147;73;1141;-58
2021/01/06 03:09:37;;;;;;;;;;;22.50;39.00;;;;;;1593096;73;802;-57
2021/01/06 03:11:39;;;;;;;;;;;22.50;39.10;;;;;;1596651;73;1925;-58
2021/01/06 03:13:41;;;;;;;;;;;22.40;38.90;;;;;;1597417;73;765;-60
2021/01/06 03:15:43;;;;;;;;;;;22.50;39.10;;;;;;1596767;73;1172;-59
2021/01/06 03:17:45;;;;;;;;;;;22.40;38.90;;;;;;1598636;73;736;-60
2021/01/06 03:19:54;;;;;;;;;;;22.40;39.10;;;;;;1598544;73;741;-58
2021/01/06 03:21:56;;;;;;;;;;;22.50;39.00;;;;;;1594258;73;759;-58
2021/01/06 03:23:58;;;;;;;;;;;22.50;39.10;;;;;;1597221;73;807;-58
2021/01/06 03:26:01;;;;;;;;;;;22.50;39.20;;;;;;1587090;73;1225;-60
2021/01/06 03:28:02;;;;;;;;;;;22.50;39.20;;;;;;1599543;73;723;-59
2021/01/06 03:30:05;;;;;;;;;;;22.50;39.20;;;;;;1592290;73;1914;-59
2021/01/06 03:32:09;;;;;;;;;;;22.50;39.40;;;;;;1594499;73;704;-59
2021/01/06 03:34:15;;;;;;;;;;;22.40;39.40;;;;;;1602398;73;709;-60
2021/01/06 03:36:19;;;;;;;;;;;22.50;39.70;;;;;;1593723;73;1791;-59
2021/01/06 03:38:37;;;;;;;;;;;22.40;39.80;;;;;;1596102;73;746;-59
2021/01/06 03:40:39;;;;;;;;;;;22.40;39.70;;;;;;1537612;76;1031;-59
2021/01/06 03:42:41;;;;;;;;;;;22.50;40.00;;;;;;1564631;73;924;-59
2021/01/06 03:44:44;;;;;;;;;;;22.40;39.90;;;;;;1585312;73;768;-57
2021/01/06 03:46:50;;;;;;;;;;;22.40;40.10;;;;;;1609260;73;1115;-59
2021/01/06 03:48:59;;;;;;;;;;;22.40;40.10;;;;;;1567952;74;1377;-59
2021/01/06 03:51:02;;;;;;;;;;;22.40;40.10;;;;;;1544205;76;1933;-60
2021/01/06 03:53:18;;;;;;;;;;;22.30;40.30;;;;;;1546548;74;1973;-60
2021/01/06 03:55:24;;;;;;;;;;;22.40;40.60;;;;;;1552538;74;783;-60
2021/01/06 03:57:27;;;;;;;;;;;22.40;40.60;;;;;;1570423;74;1782;-60
2021/01/06 03:59:29;;;;;;;;;;;22.30;40.80;;;;;;1570057;74;808;-59
2021/01/06 04:01:35;;;;;;;;;;;22.40;40.60;;;;;;1564999;74;744;-60
2021/01/06 04:03:41;;;;;;;;;;;22.30;40.80;;;;;;1552109;74;801;-59
2021/01/06 04:05:44;;;;;;;;;;;22.30;40.80;;;;;;1569138;74;1868;-59
2021/01/06 04:07:48;;;;;;;;;;;22.30;41.00;;;;;;1560199;74;820;-61
2021/01/06 04:09:51;;;;;;;;;;;22.30;41.00;;;;;;1564885;74;761;-60
2021/01/06 04:12:10;;;;;;;;;;;22.30;41.10;;;;;;1565384;74;1943;-59
2021/01/06 04:14:12;;;;;;;;;;;22.30;41.10;;;;;;1565679;74;781;-59
2021/01/06 04:16:13;;;;;;;;;;;22.30;41.10;;;;;;1562479;74;1161;-60
2021/01/06 04:18:15;;;;;;;;;;;22.30;41.30;;;;;;1571011;74;758;-59
2021/01/06 04:20:34;;;;;;;;;;;22.30;41.30;;;;;;1558715;74;916;-60
2021/01/06 04:22:46;;;;;;;;;;;22.30;41.40;;;;;;1553494;74;1807;-60
2021/01/06 04:24:48;;;;;;;;;;;22.30;41.40;;;;;;1572817;74;827;-60
2021/01/06 04:26:49;;;;;;;;;;;22.30;41.30;;;;;;1571720;74;1146;-59
2021/01/06 04:28:51;;;;;;;;;;;22.40;41.40;;;;;;1557681;74;759;-60
2021/01/06 04:30:54;;;;;;;;;;;22.40;41.40;;;;;;1569265;74;1930;-59
2021/01/06 04:32:56;;;;;;;;;;;22.30;41.40;;;;;;1561752;74;639;-59
2021/01/06 04:34:58;;;;;;;;;;;22.40;41.40;;;;;;1582204;74;744;-59
2021/01/06 04:37:00;;;;;;;;;;;22.40;41.50;;;;;;1565041;74;1122;-59
2021/01/06 04:39:03;;;;;;;;;;;22.40;41.50;;;;;;1567652;74;728;-60
2021/01/06 04:41:22;;;;;;;;;;;22.40;41.70;;;;;;1577024;74;893;-59
2021/01/06 04:43:25;;;;;;;;;;;22.40;41.80;;;;;;1572256;74;790;-59
2021/01/06 04:45:29;;;;;;;;;;;22.50;41.80;;;;;;1557490;74;712;-60
2021/01/06 04:47:48;;;;;;;;;;;22.40;41.80;;;;;;1570093;74;1093;-59
2021/01/06 04:49:57;;;;;;;;;;;22.50;41.90;;;;;;1563015;74;785;-59
2021/01/06 04:52:07;;;;;;;;;;;22.50;41.80;;;;;;1561099;74;1942;-60
2021/01/06 04:54:13;;;;;;;;;;;22.50;41.90;;;;;;1571360;74;760;-59
2021/01/06 04:56:26;;;;;;;;;;;22.50;41.80;;;;;;1600476;73;1148;-59
2021/01/06 04:58:46;;;;;;;;;;;22.50;41.80;;;;;;1578569;73;730;-59
2021/01/06 05:01:06;;;;;;;;;;;22.50;41.90;;;;;;1587378;73;719;-59
2021/01/06 05:03:15;;;;;;;;;;;22.50;41.90;;;;;;1598794;73;748;-59
2021/01/06 05:05:35;;;;;;;;;;;22.50;41.90;;;;;;1598951;73;1723;-59
2021/01/06 05:07:39;;;;;;;;;;;22.50;41.90;;;;;;1587122;73;695;-59
2021/01/06 05:09:44;;;;;;;;;;;22.50;42.00;;;;;;1598231;73;1857;-59
2021/01/06 05:11:54;;;;;;;;;;;22.50;41.90;;;;;;1599560;73;1941;-60
2021/01/06 05:14:03;;;;;;;;;;;22.50;41.90;;;;;;1592806;73;809;-61
2021/01/06 05:16:06;;;;;;;;;;;22.50;41.80;;;;;;1597728;73;1128;-60
2021/01/06 05:18:08;;;;;;;;;;;22.50;41.80;;;;;;1590340;73;718;-60
2021/01/06 05:20:10;;;;;;;;;;;22.60;41.70;;;;;;1600243;73;829;-62
2021/01/06 05:22:13;;;;;;;;;;;22.60;41.80;;;;;;1598655;73;812;-62
2021/01/06 05:24:16;;;;;;;;;;;22.60;41.70;;;;;;1582362;73;852;-60
2021/01/06 05:26:18;;;;;;;;;;;22.70;41.60;;;;;;1605324;73;1113;-59
2021/01/06 05:28:21;;;;;;;;;;;22.70;41.60;;;;;;1598696;73;765;-60
2021/01/06 05:30:27;;;;;;;;;;;22.70;41.60;;;;;;1601171;73;764;-59
2021/01/06 05:32:33;;;;;;;;;;;22.70;41.60;;;;;;1585968;73;1915;-59
2021/01/06 05:34:35;;;;;;;;;;;22.70;41.60;;;;;;1581625;73;786;-60
2021/01/06 05:36:37;;;;;;;;;;;22.70;41.60;;;;;;1587397;73;1088;-59
2021/01/06 05:38:38;;;;;;;;;;;22.70;41.60;;;;;;1597748;73;813;-60
2021/01/06 05:40:41;;;;;;;;;;;22.80;41.60;;;;;;1598891;73;827;-60
2021/01/06 05:42:56;;;;;;;;;;;22.80;41.90;;;;;;1598504;73;779;-59
2021/01/06 05:44:58;;;;;;;;;;;22.70;41.80;;;;;;1594049;73;744;-59
2021/01/06 05:46:59;;;;;;;;;;;22.70;41.80;;;;;;1596511;73;1108;-61
2021/01/06 05:49:06;;;;;;;;;;;22.80;41.80;;;;;;1591908;73;717;-59
2021/01/06 05:51:21;;;;;;;;;;;22.80;42.00;;;;;;1583153;73;1933;-59
2021/01/06 05:53:37;;;;;;;;;;;22.70;42.00;;;;;;1596348;73;773;-60
2021/01/06 05:55:40;;;;;;;;;;;22.70;42.00;;;;;;1576595;73;1128;-61
2021/01/06 05:57:46;;;;;;;;;;;22.70;42.10;;;;;;1571267;74;829;-60
2021/01/06 05:59:49;;;;;;;;;;;22.70;42.10;;;;;;1590453;73;691;-59
2021/01/06 06:01:59;;;;;;;;;;;22.70;42.00;;;;;;1592999;73;807;-60
2021/01/06 06:04:02;;;;;;;;;;;22.80;41.90;;;;;;1584515;73;755;-58
2021/01/06 06:06:06;;;;;;;;;;;22.80;41.80;;;;;;1570439;73;1665;-60
2021/01/06 06:08:09;;;;;;;;;;;22.80;41.80;;;;;;1599118;73;758;-59
2021/01/06 06:10:22;;;;;;;;;;;22.90;41.70;;;;;;1591857;73;831;-59
2021/01/06 06:12:42;;;;;;;;;;;22.90;41.60;;;;;;1594890;73;1938;-60
2021/01/06 06:15:02;;;;;;;;;;;22.90;41.70;;;;;;1584292;73;773;-59
2021/01/06 06:17:08;;;;;;;;;;;22.90;41.70;;;;;;1597984;73;1116;-61
2021/01/06 06:19:17;;;;;;;;;;;22.90;41.60;;;;;;1569954;74;793;-60
2021/01/06 06:21:23;;;;;;;;;;;22.90;41.70;;;;;;1596121;73;1718;-59
2021/01/06 06:23:36;;;;;;;;;;;22.90;41.70;;;;;;1588894;73;762;-59
2021/01/06 06:25:39;;;;;;;;;;;22.90;41.80;;;;;;1585426;73;1131;-59
2021/01/06 06:27:45;;;;;;;;;;;23.00;41.80;;;;;;1597485;73;712;-60
2021/01/06 06:29:48;;;;;;;;;;;22.90;41.90;;;;;;1597881;73;701;-59
2021/01/06 06:31:52;;;;;;;;;;;22.90;41.80;;;;;;1579912;73;1924;-60
2021/01/06 06:33:54;;;;;;;;;;;22.90;42.00;;;;;;1589301;73;1796;-60
2021/01/06 06:35:57;;;;;;;;;;;22.80;41.90;;;;;;1600042;73;1152;-60
2021/01/06 06:38:00;;;;;;;;;;;22.90;42.10;;;;;;1598636;73;858;-59
2021/01/06 06:40:04;;;;;;;;;;;22.90;42.10;;;;;;1601294;73;1821;-60
2021/01/06 06:42:19;;;;;;;;;;;22.90;42.10;;;;;;1599249;73;702;-59
2021/01/06 06:44:23;;;;;;;;;;;22.90;42.20;;;;;;1603065;73;699;-61
2021/01/06 06:46:29;;;;;;;;;;;22.80;42.10;;;;;;1595999;73;1127;-59
2021/01/06 06:48:42;;;;;;;;;;;22.90;42.10;;;;;;1598919;73;715;-58
2021/01/06 06:50:54;;;;;;;;;;;22.90;42.20;;;;;;1575662;74;1364;-61
2021/01/06 06:53:14;;;;;;;;;;;22.90;42.30;;;;;;1595219;73;1957;-59
2021/01/06 06:55:18;;;;;;;;;;;22.90;42.20;;;;;;1598363;73;783;-59
2021/01/06 06:57:27;;;;;;;;;;;22.90;42.20;;;;;;1602882;73;2014;-60
2021/01/06 06:59:30;;;;;;;;;;;22.90;42.20;;;;;;1597886;73;1956;-59
2021/01/06 07:01:33;;;;;;;;;;;22.90;42.20;;;;;;1595847;73;812;-60
2021/01/06 07:03:35;;;;;;;;;;;22.90;42.10;;;;;;1596978;73;792;-60
2021/01/06 07:05:38;;;;;;;;;;;23.00;42.00;;;;;;1600798;73;1128;-60
2021/01/06 07:07:41;;;;;;;;;;;22.90;42.10;;;;;;1563535;74;1028;-59
2021/01/06 07:09:43;;;;;;;;;;;22.90;42.10;;;;;;1553973;75;774;-60
2021/01/06 07:11:48;;;;;;;;;;;22.90;42.10;;;;;;1543436;76;1940;-59
2021/01/06 07:13:57;;;;;;;;;;;23.00;42.20;;;;;;1533724;76;825;-59
2021/01/06 07:16:03;;;;;;;;;;;22.90;42.20;;;;;;1547401;76;1190;-60
2021/01/06 07:18:23;;;;;;;;;;;22.90;42.20;;;;;;1568637;74;782;-60
2021/01/06 07:20:33;;;;;;;;;;;22.90;42.20;;;;;;1595071;73;745;-59
2021/01/06 07:22:39;;;;;;;;;;;22.90;42.20;;;;;;1596725;73;1151;-60
2021/01/06 07:24:41;;;;;;;;;;;22.90;42.30;;;;;;1593095;73;727;-61
2021/01/06 07:26:51;;;;;;;;;;;22.90;42.40;;;;;;1598513;73;1190;-59
2021/01/06 07:29:02;;;;;;;;;;;22.90;42.50;;;;;;1587637;73;712;-61
2021/01/06 07:31:24;;;;;;;;;;;22.90;42.50;;;;;;1581697;73;735;-60
2021/01/06 07:33:34;;;;;;;;;;;22.80;42.40;;;;;;1586325;73;687;-61
2021/01/06 07:35:33;;;;;;;;;;;22.90;42.60;;;;;;1596749;73;1423;-59
2021/01/06 07:37:36;;;;;;;;;;;22.80;42.30;;;;;;1592528;73;1180;-60
2021/01/06 07:39:38;;;;;;;;;;;22.90;42.40;;;;;;1608850;73;745;-61
2021/01/06 07:41:42;;;;;;;;;;;22.90;42.40;;;;;;1595246;73;796;-60
2021/01/06 07:43:45;;;;;;;;;;;22.90;42.30;;;;;;1589284;73;724;-60
2021/01/06 07:45:52;;;;;;;;;;;22.90;42.40;;;;;;1583293;73;1640;-61
2021/01/06 07:47:55;;;;;;;;;;;22.90;42.30;;;;;;1596560;73;723;-60
2021/01/06 07:49:57;;;;;;;;;;;22.90;42.40;;;;;;1594492;73;1140;-59
2021/01/06 07:52:01;;;;;;;;;;;23.00;42.30;;;;;;1600121;73;1918;-61
2021/01/06 07:54:07;;;;;;;;;;;23.00;42.30;;;;;;1589945;73;1658;-60
2021/01/06 07:56:17;;;;;;;;;;;23.00;42.30;;;;;;1600438;73;1667;-61
2021/01/06 07:58:20;;;;;;;;;;;23.00;42.30;;;;;;1596370;71;218626;-69
2021/01/06 08:00:26;;;;;;;;;;;23.00;42.30;;;;;;1600266;73;683;-66
2021/01/06 08:02:37;;;;;;;;;;;23.00;42.50;;;;;;1610765;73;713;-69
2021/01/06 08:04:59;;;;;;;;;;;23.00;42.60;;;;;;1591420;73;1740;-69
2021/01/06 08:07:10;;;;;;;;;;;23.00;42.60;;;;;;1585978;73;720;-69
2021/01/06 08:09:04;;;;;;;;;;;23.00;42.60;;;;;;1579020;73;1254;-70
2021/01/06 08:11:06;;;;;;;;;;;22.90;42.60;;;;;;1616649;72;786;-70
2021/01/06 08:13:10;;;;;;;;;;;23.00;42.40;;;;;;1606947;73;1915;-70
2021/01/06 08:15:19;;;;;;;;;;;23.10;42.50;;;;;;1599286;73;1479;-70
2021/01/06 08:17:24;;;;;;;;;;;23.10;42.50;;;;;;1583948;73;777;-70
2021/01/06 08:19:28;;;;;;;;;;;23.10;42.60;;;;;;1588365;73;1153;-71
2021/01/06 08:21:34;;;;;;;;;;;23.00;42.60;;;;;;1617075;73;1022;-71
2021/01/06 08:23:54;;;;;;;;;;;23.00;42.80;;;;;;1621503;71;780;-71
2021/01/06 08:25:58;;;;;;;;;;;23.10;42.70;;;;;;1592770;73;775;-72
2021/01/06 08:28:00;;;;;;;;;;;23.10;42.60;;;;;;1596813;73;786;-71
2021/01/06 08:30:12;;;;;;;;;;;23.10;42.60;;;;;;1583082;73;1154;-72
2021/01/06 08:32:18;;;;;;;;;;;23.00;42.50;;;;;;1600589;73;1944;-70
2021/01/06 08:34:24;;;;;;;;;;;23.10;42.70;;;;;;1596667;72;793;-71
2021/01/06 08:36:31;;;;;;;;;;;23.10;42.60;;;;;;1601960;72;803;-71
2021/01/06 08:38:33;;;;;;;;;;;23.10;42.70;;;;;;1593879;72;1172;-71
2021/01/06 08:40:38;;;;;;;;;;;23.10;42.80;;;;;;1592088;73;818;-72
2021/01/06 08:42:42;;;;;;;;;;;23.10;42.80;;;;;;1596284;73;814;-72
2021/01/06 08:44:49;;;;;;;;;;;23.10;42.70;;;;;;1587752;73;713;-71
2021/01/06 08:46:52;;;;;;;;;;;23.20;42.60;;;;;;1584826;72;731;-71
2021/01/06 08:48:56;;;;;;;;;;;23.10;42.60;;;;;;1595054;73;1612;-68
2021/01/06 08:50:59;;;;;;;;;;;23.10;42.60;;;;;;1598916;73;1621;-70
2021/01/06 08:53:02;;;;;;;;;;;23.20;42.60;;;;;;1610597;73;1948;-70
2021/01/06 08:55:05;;;;;;;;;;;23.10;42.60;;;;;;1604635;73;723;-71
2021/01/06 08:57:07;;;;;;;;;;;23.10;42.50;;;;;;1600455;73;730;-70
2021/01/06 08:59:11;;;;;;;;;;;23.10;42.60;;;;;;1596705;73;1089;-71
2021/01/06 09:01:24;;;;;;;;;;;23.20;42.50;;;;;;1599771;72;1951;-71
2021/01/06 09:03:30;;;;;;;;;;;23.20;42.50;;;;;;1596535;73;779;-71
2021/01/06 09:05:46;;;;;;;;;;;23.10;42.60;;;;;;1598143;73;907;-69
2021/01/06 09:07:48;;;;;;;;;;;23.20;42.50;;;;;;1575491;73;653;-69
2021/01/06 09:09:51;;;;;;;;;;;23.20;42.60;;;;;;1546933;74;1137;-69
2021/01/06 09:11:54;;;;;;;;;;;23.10;42.60;;;;;;1598628;73;1948;-69
2021/01/06 09:13:58;;;;;;;;;;;23.10;42.80;;;;;;1596572;73;894;-69
2021/01/06 09:16:07;;;;;;;;;;;23.10;42.80;;;;;;1601164;73;869;-69
2021/01/06 09:18:13;;;;;;;;;;;23.10;42.90;;;;;;1560539;74;1131;-69
2021/01/06 09:20:17;;;;;;;;;;;23.20;42.90;;;;;;1591640;73;921;-71
2021/01/06 09:22:19;;;;;;;;;;;23.10;41.00;;;;;;1596418;73;1695;-70
2021/01/06 09:24:28;;;;;;;;;;;23.20;39.70;;;;;;1600791;73;687;-70
2021/01/06 09:26:30;;;;;;;;;;;23.20;39.70;;;;;;1600357;72;698;-68
2021/01/06 09:28:34;;;;;;;;;;;23.20;39.50;;;;;;1596122;73;1173;-68
2021/01/06 09:30:36;;;;;;;;;;;23.20;39.10;;;;;;1598488;73;986;-68
2021/01/06 09:32:38;;;;;;;;;;;23.20;38.60;;;;;;1593911;72;1912;-68
2021/01/06 09:34:41;;;;;;;;;;;23.20;38.60;;;;;;1595067;73;694;-68
2021/01/06 09:36:43;;;;;;;;;;;23.20;38.80;;;;;;1599095;73;804;-68
2021/01/06 09:38:46;;;;;;;;;;;23.20;38.40;;;;;;1589755;73;1173;-67
2021/01/06 09:40:48;;;;;;;;;;;23.20;38.00;;;;;;1605919;72;719;-68
2021/01/06 09:42:54;;;;;;;;;;;23.20;37.70;;;;;;1609128;73;719;-68
2021/01/06 09:44:56;;;;;;;;;;;23.20;37.60;;;;;;1598722;72;1668;-68
2021/01/06 09:47:00;;;;;;;;;;;23.20;37.40;;;;;;1609760;73;721;-67
2021/01/06 09:49:03;;;;;;;;;;;23.20;37.30;;;;;;1595345;73;1765;-67
2021/01/06 09:51:05;;;;;;;;;;;23.20;37.30;;;;;;1599698;73;1021;-68
2021/01/06 09:53:09;;;;;;;;;;;23.20;37.20;;;;;;1601757;73;1918;-68
2021/01/06 09:55:12;;;;;;;;;;;23.10;37.10;;;;;;1597817;73;1832;-68
2021/01/06 09:57:14;;;;;;;;;;;23.10;37.10;;;;;;1599495;73;718;-68
2021/01/06 09:59:21;;;;;;;;;;;23.10;37.10;;;;;;1598841;73;1145;-67
2021/01/06 10:01:36;;;;;;;;;;;23.10;37.00;;;;;;1592513;73;721;-67
2021/01/06 10:03:39;;;;;;;;;;;23.10;36.80;;;;;;1603174;73;695;-67
2021/01/06 10:05:51;;;;;;;;;;;23.10;36.80;;;;;;1599220;72;718;-67
2021/01/06 10:07:58;;;;;;;;;;;23.10;36.80;;;;;;1597430;73;690;-68
2021/01/06 10:10:01;;;;;;;;;;;23.00;36.60;;;;;;1606657;73;1132;-67
2021/01/06 10:12:22;;;;;;;;;;;23.00;36.70;;;;;;1600148;73;684;-68
2021/01/06 10:14:28;;;;;;;;;;;23.00;36.70;;;;;;1609277;72;747;-68
2021/01/06 10:16:32;;;;;;;;;;;23.00;36.70;;;;;;1572035;73;1069;-67
2021/01/06 10:18:52;;;;;;;;;;;22.90;36.70;;;;;;1600613;73;1181;-67
2021/01/06 10:21:04;;;;;;;;;;;23.00;36.70;;;;;;1612660;72;742;-68
2021/01/06 10:23:07;;;;;;;;;;;22.90;36.70;;;;;;1607510;73;1120;-68
2021/01/06 10:25:11;;;;;;;;;;;22.90;36.60;;;;;;1603720;72;783;-67
2021/01/06 10:27:31;;;;;;;;;;;22.80;36.50;;;;;;1589453;73;659;-67
2021/01/06 10:29:35;;;;;;;;;;;22.90;36.70;;;;;;1593029;73;1188;-67
2021/01/06 10:31:38;;;;;;;;;;;22.80;36.40;;;;;;1589338;73;1390;-68
2021/01/06 10:33:58;;;;;;;;;;;22.80;36.50;;;;;;1591838;73;1938;-67
2021/01/06 10:36:19;;;;;;;;;;;22.80;36.50;;;;;;1589618;72;720;-68
2021/01/06 10:38:22;;;;;;;;;;;22.80;36.50;;;;;;1541825;75;1147;-67
2021/01/06 10:40:35;;;;;;;;;;;22.80;36.40;;;;;;1563576;74;1161;-68
2021/01/06 10:42:37;;;;;;;;;;;22.80;36.40;;;;;;1571319;75;1076;-68
2021/01/06 10:44:40;;;;;;;;;;;22.80;36.40;;;;;;1566366;74;782;-68
2021/01/06 10:46:43;;;;;;;;;;;22.80;36.40;;;;;;1573151;74;1099;-68
2021/01/06 10:48:47;;;;;;;;;;;22.80;36.30;;;;;;1543877;76;1143;-68
2021/01/06 10:50:49;;;;;;;;;;;22.80;36.30;;;;;;1560667;74;895;-68
2021/01/06 10:53:05;;;;;;;;;;;22.80;36.30;;;;;;1533814;75;1933;-69
2021/01/06 10:55:08;;;;;;;;;;;22.70;36.30;;;;;;1565718;74;719;-68
2021/01/06 10:57:12;;;;;;;;;;;22.80;36.10;;;;;;1540778;75;732;-68
2021/01/06 10:59:14;;;;;;;;;;;22.80;36.20;;;;;;1531919;75;1153;-68
2021/01/06 11:01:18;;;;;;;;;;;22.80;36.20;;;;;;1542865;75;805;-70
2021/01/06 11:03:34;;;;;;;;;;;22.80;36.10;;;;;;1595192;73;749;-68
2021/01/06 11:05:37;;;;;;;;;;;22.70;36.20;;;;;;1601177;73;702;-68
2021/01/06 11:07:41;;;;;;;;;;;22.80;36.20;;;;;;1595207;73;1159;-67
2021/01/06 11:10:00;;;;;;;;;;;22.70;36.20;;;;;;1604853;72;1139;-69
2021/01/06 11:12:07;;;;;;;;;;;22.70;36.10;;;;;;1592716;73;754;-69
2021/01/06 11:14:26;;;;;;;;;;;22.80;36.10;;;;;;1609634;73;1948;-66
2021/01/06 11:16:29;;;;;;;;;;;22.70;36.10;;;;;;1529431;75;694;-67
2021/01/06 11:18:32;;;;;;;;;;;22.70;36.00;;;;;;1602531;73;1159;-69
2021/01/06 11:20:35;;;;;;;;;;;22.70;36.10;;;;;;1592848;73;714;-68
2021/01/06 11:22:46;;;;;;;;;;;22.70;36.00;;;;;;1593365;73;714;-68
2021/01/06 11:24:51;;;;;;;;;;;22.70;36.00;;;;;;1617300;73;1020;-67
2021/01/06 11:26:53;;;;;;;;;;;22.60;36.00;;;;;;1606328;73;940;-67
2021/01/06 11:28:57;;;;;;;;;;;22.70;36.00;;;;;;1600291;73;1099;-68
2021/01/06 11:31:12;;;;;;;;;;;22.60;35.90;;;;;;1539540;73;1022;-68
2021/01/06 11:33:20;;;;;;;;;;;22.70;36.00;;;;;;1604649;73;1925;-68
2021/01/06 11:35:24;;;;;;;;;;;22.70;36.00;;;;;;1597700;72;829;-68
2021/01/06 11:37:28;;;;;;;;;;;22.70;35.90;;;;;;1606696;72;686;-69
2021/01/06 11:39:41;;;;;;;;;;;22.70;36.00;;;;;;1593530;73;1152;-69
2021/01/06 11:41:49;;;;;;;;;;;22.60;35.80;;;;;;1601571;73;692;-70
2021/01/06 11:43:49;;;;;;;;;;;22.60;35.80;;;;;;1610952;73;965;-69
2021/01/06 11:45:51;;;;;;;;;;;22.60;35.80;;;;;;1610594;73;795;-68
2021/01/06 11:47:57;;;;;;;;;;;22.60;35.80;;;;;;1618236;72;704;-68
2021/01/06 11:50:17;;;;;;;;;;;22.60;35.80;;;;;;1599582;72;1148;-70
2021/01/06 11:52:32;;;;;;;;;;;22.60;35.80;;;;;;1595950;73;804;-71
2021/01/06 11:54:35;;;;;;;;;;;22.60;35.70;;;;;;1597398;73;1934;-68
2021/01/06 11:56:39;;;;;;;;;;;22.70;35.50;;;;;;1599785;73;685;-68
2021/01/06 11:58:42;;;;;;;;;;;22.60;35.60;;;;;;1589435;73;1865;-68
2021/01/06 12:00:46;;;;;;;;;;;22.50;35.70;;;;;;1594596;73;1161;-67
2021/01/06 12:02:55;;;;;;;;;;;22.50;35.50;;;;;;1585118;73;690;-68
2021/01/06 12:05:02;;;;;;;;;;;22.60;35.70;;;;;;1586633;73;1163;-65
2021/01/06 12:07:06;;;;;;;;;;;22.50;35.80;;;;;;1591449;73;734;-68
2021/01/06 12:09:25;;;;;;;;;;;22.60;35.80;;;;;;1587320;72;1206;-65
2021/01/06 12:11:29;;;;;;;;;;;22.50;35.70;;;;;;1603831;73;659;-68
2021/01/06 12:13:50;;;;;;;;;;;22.50;35.90;;;;;;1594699;73;1940;-67
2021/01/06 12:15:54;;;;;;;;;;;22.50;35.90;;;;;;1597286;73;712;-69
2021/01/06 12:17:57;;;;;;;;;;;22.50;36.00;;;;;;1597682;73;1085;-69
2021/01/06 12:20:00;;;;;;;;;;;22.60;35.90;;;;;;1593386;73;1187;-69
2021/01/06 12:22:03;;;;;;;;;;;22.60;36.00;;;;;;1597169;73;719;-69
2021/01/06 12:24:24;;;;;;;;;;;22.70;36.00;;;;;;1589931;73;807;-70
2021/01/06 12:26:46;;;;;;;;;;;22.60;36.00;;;;;;1590945;73;729;-69
2021/01/06 12:28:50;;;;;;;;;;;22.70;36.50;;;;;;1515136;77;1166;-70